sensor_id;sensor_type;location;lat;lon;timestamp;temperature;humidity
69589;SHT31;56792;50.644;17.984;2023-07-09T00:01:59;17.01;73.65
69589;SHT31;56792;50.644;17.984;2023-07-09T00:04:27;16.98;73.58
69589;SHT31;56792;50.644;17.984;2023-07-09T00:06:56;16.94;73.55
69589;SHT31;56792;50.644;17.984;2023-07-09T00:09:28;16.92;73.55
69589;SHT31;56792;50.644;17.984;2023-07-09T00:11:57;16.92;73.72
69589;SHT31;56792;50.644;17.984;2023-07-09T00:14:25;16.92;73.73
69589;SHT31;56792;50.644;17.984;2023-07-09T00:16:54;16.90;73.52
69589;SHT31;56792;50.644;17.984;2023-07-09T00:19:22;16.89;73.49
69589;SHT31;56792;50.644;17.984;2023-07-09T00:21:50;16.88;73.52
69589;SHT31;56792;50.644;17.984;2023-07-09T00:24:19;16.85;73.53
69589;SHT31;56792;50.644;17.984;2023-07-09T00:26:47;16.84;73.65
69589;SHT31;56792;50.644;17.984;2023-07-09T00:29:16;16.82;73.59
69589;SHT31;56792;50.644;17.984;2023-07-09T00:31:44;16.82;73.51
69589;SHT31;56792;50.644;17.984;2023-07-09T00:34:13;16.80;73.61
69589;SHT31;56792;50.644;17.984;2023-07-09T00:36:43;16.76;73.60
69589;SHT31;56792;50.644;17.984;2023-07-09T00:39:13;16.72;73.67
69589;SHT31;56792;50.644;17.984;2023-07-09T00:41:44;16.69;73.69
69589;SHT31;56792;50.644;17.984;2023-07-09T00:44:25;16.66;73.93
69589;SHT31;56792;50.644;17.984;2023-07-09T00:47:12;16.63;74.06
69589;SHT31;56792;50.644;17.984;2023-07-09T00:49:47;16.59;73.96
69589;SHT31;56792;50.644;17.984;2023-07-09T00:52:20;16.57;74.05
69589;SHT31;56792;50.644;17.984;2023-07-09T00:54:58;16.52;74.20
69589;SHT31;56792;50.644;17.984;2023-07-09T00:57:31;16.48;74.15
69589;SHT31;56792;50.644;17.984;2023-07-09T01:00:05;16.44;74.21
69589;SHT31;56792;50.644;17.984;2023-07-09T01:02:40;16.40;74.50
69589;SHT31;56792;50.644;17.984;2023-07-09T01:05:14;16.38;74.46
69589;SHT31;56792;50.644;17.984;2023-07-09T01:07:45;16.38;74.55
69589;SHT31;56792;50.644;17.984;2023-07-09T01:10:14;16.37;74.58
69589;SHT31;56792;50.644;17.984;2023-07-09T01:12:44;16.37;74.71
69589;SHT31;56792;50.644;17.984;2023-07-09T01:15:17;16.37;74.77
69589;SHT31;56792;50.644;17.984;2023-07-09T01:17:45;16.36;75.22
69589;SHT31;56792;50.644;17.984;2023-07-09T01:20:17;16.32;75.45
69589;SHT31;56792;50.644;17.984;2023-07-09T01:22:48;16.30;75.38
69589;SHT31;56792;50.644;17.984;2023-07-09T01:25:20;16.26;75.34
69589;SHT31;56792;50.644;17.984;2023-07-09T01:27:49;16.25;75.51
69589;SHT31;56792;50.644;17.984;2023-07-09T01:30:19;16.23;75.49
69589;SHT31;56792;50.644;17.984;2023-07-09T01:32:51;16.21;75.64
69589;SHT31;56792;50.644;17.984;2023-07-09T01:35:24;16.19;75.67
69589;SHT31;56792;50.644;17.984;2023-07-09T01:37:54;16.16;75.38
69589;SHT31;56792;50.644;17.984;2023-07-09T01:40:24;16.11;75.05
69589;SHT31;56792;50.644;17.984;2023-07-09T01:42:53;16.08;74.82
69589;SHT31;56792;50.644;17.984;2023-07-09T01:45:24;16.04;74.74
69589;SHT31;56792;50.644;17.984;2023-07-09T01:47:53;15.98;74.51
69589;SHT31;56792;50.644;17.984;2023-07-09T01:50:23;15.94;74.52
69589;SHT31;56792;50.644;17.984;2023-07-09T01:52:52;15.89;74.48
69589;SHT31;56792;50.644;17.984;2023-07-09T01:55:22;15.84;74.47
69589;SHT31;56792;50.644;17.984;2023-07-09T01:57:51;15.77;74.42
69589;SHT31;56792;50.644;17.984;2023-07-09T02:00:20;15.72;74.34
69589;SHT31;56792;50.644;17.984;2023-07-09T02:02:48;15.67;74.54
69589;SHT31;56792;50.644;17.984;2023-07-09T02:05:18;15.63;74.65
69589;SHT31;56792;50.644;17.984;2023-07-09T02:07:47;15.59;74.73
69589;SHT31;56792;50.644;17.984;2023-07-09T02:10:16;15.55;74.70
69589;SHT31;56792;50.644;17.984;2023-07-09T02:12:45;15.50;74.69
69589;SHT31;56792;50.644;17.984;2023-07-09T02:15:14;15.46;74.90
69589;SHT31;56792;50.644;17.984;2023-07-09T02:17:43;15.43;74.91
69589;SHT31;56792;50.644;17.984;2023-07-09T02:20:12;15.39;75.11
69589;SHT31;56792;50.644;17.984;2023-07-09T02:22:41;15.36;75.17
69589;SHT31;56792;50.644;17.984;2023-07-09T02:25:09;15.35;75.34
69589;SHT31;56792;50.644;17.984;2023-07-09T02:27:38;15.31;75.36
69589;SHT31;56792;50.644;17.984;2023-07-09T02:30:07;15.27;75.55
69589;SHT31;56792;50.644;17.984;2023-07-09T02:32:37;15.22;75.54
69589;SHT31;56792;50.644;17.984;2023-07-09T02:35:07;15.20;75.55
69589;SHT31;56792;50.644;17.984;2023-07-09T02:37:36;15.18;75.69
69589;SHT31;56792;50.644;17.984;2023-07-09T02:40:05;15.14;75.71
69589;SHT31;56792;50.644;17.984;2023-07-09T02:42:36;15.09;75.78
69589;SHT31;56792;50.644;17.984;2023-07-09T02:45:05;15.07;75.92
69589;SHT31;56792;50.644;17.984;2023-07-09T02:47:36;15.01;76.14
69589;SHT31;56792;50.644;17.984;2023-07-09T02:50:07;14.97;76.25
69589;SHT31;56792;50.644;17.984;2023-07-09T02:52:36;14.95;76.33
69589;SHT31;56792;50.644;17.984;2023-07-09T02:55:06;14.93;76.33
69589;SHT31;56792;50.644;17.984;2023-07-09T02:57:35;14.90;76.48
69589;SHT31;56792;50.644;17.984;2023-07-09T03:00:04;14.88;76.49
69589;SHT31;56792;50.644;17.984;2023-07-09T03:02:35;14.85;76.53
69589;SHT31;56792;50.644;17.984;2023-07-09T03:05:04;14.83;76.64
69589;SHT31;56792;50.644;17.984;2023-07-09T03:07:35;14.82;76.76
69589;SHT31;56792;50.644;17.984;2023-07-09T03:10:04;14.80;77.26
69589;SHT31;56792;50.644;17.984;2023-07-09T03:12:34;14.74;77.63
69589;SHT31;56792;50.644;17.984;2023-07-09T03:15:03;14.71;77.65
69589;SHT31;56792;50.644;17.984;2023-07-09T03:17:33;14.69;77.40
69589;SHT31;56792;50.644;17.984;2023-07-09T03:20:01;14.67;77.58
69589;SHT31;56792;50.644;17.984;2023-07-09T03:22:30;14.65;77.82
69589;SHT31;56792;50.644;17.984;2023-07-09T03:24:58;14.65;77.84
69589;SHT31;56792;50.644;17.984;2023-07-09T03:27:27;14.64;77.89
69589;SHT31;56792;50.644;17.984;2023-07-09T03:29:55;14.63;77.99
69589;SHT31;56792;50.644;17.984;2023-07-09T03:32:23;14.64;78.11
69589;SHT31;56792;50.644;17.984;2023-07-09T03:34:52;14.66;78.22
69589;SHT31;56792;50.644;17.984;2023-07-09T03:37:20;14.68;78.15
69589;SHT31;56792;50.644;17.984;2023-07-09T03:39:48;14.70;78.14
69589;SHT31;56792;50.644;17.984;2023-07-09T03:42:17;14.73;78.10
69589;SHT31;56792;50.644;17.984;2023-07-09T03:44:45;14.75;78.06
69589;SHT31;56792;50.644;17.984;2023-07-09T03:47:13;14.78;78.02
69589;SHT31;56792;50.644;17.984;2023-07-09T03:49:42;14.80;78.14
69589;SHT31;56792;50.644;17.984;2023-07-09T03:52:10;14.82;78.23
69589;SHT31;56792;50.644;17.984;2023-07-09T03:54:38;14.85;78.12
69589;SHT31;56792;50.644;17.984;2023-07-09T03:57:07;14.88;78.22
69589;SHT31;56792;50.644;17.984;2023-07-09T03:59:35;14.89;78.28
69589;SHT31;56792;50.644;17.984;2023-07-09T04:02:06;14.92;78.26
69589;SHT31;56792;50.644;17.984;2023-07-09T04:04:34;14.96;78.32
69589;SHT31;56792;50.644;17.984;2023-07-09T04:07:02;14.99;78.42
69589;SHT31;56792;50.644;17.984;2023-07-09T04:09:31;15.01;78.22
69589;SHT31;56792;50.644;17.984;2023-07-09T04:11:59;15.05;78.10
69589;SHT31;56792;50.644;17.984;2023-07-09T04:14:28;15.08;78.00
69589;SHT31;56792;50.644;17.984;2023-07-09T04:16:57;15.12;78.14
69589;SHT31;56792;50.644;17.984;2023-07-09T04:19:25;15.16;78.25
69589;SHT31;56792;50.644;17.984;2023-07-09T04:21:54;15.21;78.26
69589;SHT31;56792;50.644;17.984;2023-07-09T04:24:22;15.26;78.22
69589;SHT31;56792;50.644;17.984;2023-07-09T04:26:50;15.32;78.11
69589;SHT31;56792;50.644;17.984;2023-07-09T04:29:22;15.36;78.06
69589;SHT31;56792;50.644;17.984;2023-07-09T04:31:50;15.42;77.93
69589;SHT31;56792;50.644;17.984;2023-07-09T04:34:18;15.47;77.88
69589;SHT31;56792;50.644;17.984;2023-07-09T04:36:46;15.52;77.77
69589;SHT31;56792;50.644;17.984;2023-07-09T04:39:15;15.58;77.82
69589;SHT31;56792;50.644;17.984;2023-07-09T04:41:43;15.65;77.99
69589;SHT31;56792;50.644;17.984;2023-07-09T04:44:11;15.72;77.88
69589;SHT31;56792;50.644;17.984;2023-07-09T04:46:39;15.79;77.91
69589;SHT31;56792;50.644;17.984;2023-07-09T04:49:08;15.87;78.16
69589;SHT31;56792;50.644;17.984;2023-07-09T04:51:37;15.95;78.49
69589;SHT31;56792;50.644;17.984;2023-07-09T04:54:05;16.04;78.68
69589;SHT31;56792;50.644;17.984;2023-07-09T04:56:33;16.13;78.94
69589;SHT31;56792;50.644;17.984;2023-07-09T04:59:03;16.23;79.15
69589;SHT31;56792;50.644;17.984;2023-07-09T05:01:31;16.32;79.23
69589;SHT31;56792;50.644;17.984;2023-07-09T05:03:59;16.43;79.41
69589;SHT31;56792;50.644;17.984;2023-07-09T05:06:27;16.56;79.28
69589;SHT31;56792;50.644;17.984;2023-07-09T05:08:56;16.67;78.89
69589;SHT31;56792;50.644;17.984;2023-07-09T05:11:24;16.75;78.89
69589;SHT31;56792;50.644;17.984;2023-07-09T05:13:53;16.85;79.02
69589;SHT31;56792;50.644;17.984;2023-07-09T05:16:21;16.95;78.81
69589;SHT31;56792;50.644;17.984;2023-07-09T05:18:49;17.04;78.67
69589;SHT31;56792;50.644;17.984;2023-07-09T05:21:17;17.14;78.66
69589;SHT31;56792;50.644;17.984;2023-07-09T05:23:46;17.26;78.20
69589;SHT31;56792;50.644;17.984;2023-07-09T05:26:14;17.36;77.95
69589;SHT31;56792;50.644;17.984;2023-07-09T05:28:42;17.48;77.86
69589;SHT31;56792;50.644;17.984;2023-07-09T05:31:10;17.58;77.82
69589;SHT31;56792;50.644;17.984;2023-07-09T05:33:39;17.68;77.86
69589;SHT31;56792;50.644;17.984;2023-07-09T05:36:07;17.80;77.70
69589;SHT31;56792;50.644;17.984;2023-07-09T05:38:41;17.91;77.70
69589;SHT31;56792;50.644;17.984;2023-07-09T05:41:09;18.04;77.52
69589;SHT31;56792;50.644;17.984;2023-07-09T05:43:38;18.21;77.19
69589;SHT31;56792;50.644;17.984;2023-07-09T05:46:06;18.35;76.91
69589;SHT31;56792;50.644;17.984;2023-07-09T05:48:34;18.47;76.73
69589;SHT31;56792;50.644;17.984;2023-07-09T05:51:02;18.60;76.19
69589;SHT31;56792;50.644;17.984;2023-07-09T05:53:31;18.72;75.88
69589;SHT31;56792;50.644;17.984;2023-07-09T05:55:59;18.83;75.68
69589;SHT31;56792;50.644;17.984;2023-07-09T05:58:28;18.94;75.38
69589;SHT31;56792;50.644;17.984;2023-07-09T06:00:56;19.08;75.14
69589;SHT31;56792;50.644;17.984;2023-07-09T06:03:25;19.21;74.66
69589;SHT31;56792;50.644;17.984;2023-07-09T06:05:55;19.34;72.90
69589;SHT31;56792;50.644;17.984;2023-07-09T06:08:25;19.47;72.71
69589;SHT31;56792;50.644;17.984;2023-07-09T06:10:55;19.59;72.26
69589;SHT31;56792;50.644;17.984;2023-07-09T06:13:25;19.73;71.84
69589;SHT31;56792;50.644;17.984;2023-07-09T06:15:56;19.86;71.87
69589;SHT31;56792;50.644;17.984;2023-07-09T06:18:25;20.01;71.91
69589;SHT31;56792;50.644;17.984;2023-07-09T06:20:56;20.18;71.44
69589;SHT31;56792;50.644;17.984;2023-07-09T06:23:27;20.33;71.13
69589;SHT31;56792;50.644;17.984;2023-07-09T06:25:56;20.48;70.53
69589;SHT31;56792;50.644;17.984;2023-07-09T06:28:25;20.66;70.32
69589;SHT31;56792;50.644;17.984;2023-07-09T06:30:55;20.80;70.06
69589;SHT31;56792;50.644;17.984;2023-07-09T06:33:24;20.96;69.39
69589;SHT31;56792;50.644;17.984;2023-07-09T06:35:54;21.13;68.70
69589;SHT31;56792;50.644;17.984;2023-07-09T06:38:26;21.27;67.76
69589;SHT31;56792;50.644;17.984;2023-07-09T06:40:55;21.41;67.51
69589;SHT31;56792;50.644;17.984;2023-07-09T06:43:23;21.57;67.20
69589;SHT31;56792;50.644;17.984;2023-07-09T06:45:53;21.73;66.52
69589;SHT31;56792;50.644;17.984;2023-07-09T06:48:24;21.89;66.32
69589;SHT31;56792;50.644;17.984;2023-07-09T06:50:55;22.08;65.78
69589;SHT31;56792;50.644;17.984;2023-07-09T06:53:25;22.30;64.88
69589;SHT31;56792;50.644;17.984;2023-07-09T06:55:55;22.51;64.22
69589;SHT31;56792;50.644;17.984;2023-07-09T06:58:26;22.72;63.56
69589;SHT31;56792;50.644;17.984;2023-07-09T07:00:57;22.90;62.87
69589;SHT31;56792;50.644;17.984;2023-07-09T07:03:29;23.09;62.77
69589;SHT31;56792;50.644;17.984;2023-07-09T07:05:58;23.29;61.91
69589;SHT31;56792;50.644;17.984;2023-07-09T07:08:27;23.52;60.43
69589;SHT31;56792;50.644;17.984;2023-07-09T07:10:56;23.76;60.03
69589;SHT31;56792;50.644;17.984;2023-07-09T07:13:28;23.97;59.48
69589;SHT31;56792;50.644;17.984;2023-07-09T07:15:57;24.23;58.67
69589;SHT31;56792;50.644;17.984;2023-07-09T07:18:25;24.45;58.15
69589;SHT31;56792;50.644;17.984;2023-07-09T07:20:54;24.64;56.44
69589;SHT31;56792;50.644;17.984;2023-07-09T07:23:22;24.83;56.23
69589;SHT31;56792;50.644;17.984;2023-07-09T07:25:50;25.02;56.01
69589;SHT31;56792;50.644;17.984;2023-07-09T07:28:19;25.22;55.08
69589;SHT31;56792;50.644;17.984;2023-07-09T07:30:48;25.40;55.23
69589;SHT31;56792;50.644;17.984;2023-07-09T07:33:26;25.61;53.93
69589;SHT31;56792;50.644;17.984;2023-07-09T07:35:54;25.79;53.24
69589;SHT31;56792;50.644;17.984;2023-07-09T07:38:22;25.99;52.15
69589;SHT31;56792;50.644;17.984;2023-07-09T07:40:51;26.18;51.57
69589;SHT31;56792;50.644;17.984;2023-07-09T07:43:20;26.36;50.66
69589;SHT31;56792;50.644;17.984;2023-07-09T07:45:48;26.53;50.33
69589;SHT31;56792;50.644;17.984;2023-07-09T07:48:16;26.65;49.22
69589;SHT31;56792;50.644;17.984;2023-07-09T07:50:45;26.76;47.94
69589;SHT31;56792;50.644;17.984;2023-07-09T07:53:13;26.90;49.76
69589;SHT31;56792;50.644;17.984;2023-07-09T07:55:42;27.04;48.82
69589;SHT31;56792;50.644;17.984;2023-07-09T07:58:12;27.18;49.62
69589;SHT31;56792;50.644;17.984;2023-07-09T08:00:40;27.35;48.88
69589;SHT31;56792;50.644;17.984;2023-07-09T08:03:08;27.49;46.49
69589;SHT31;56792;50.644;17.984;2023-07-09T08:05:37;27.63;45.91
69589;SHT31;56792;50.644;17.984;2023-07-09T08:08:05;27.77;45.53
69589;SHT31;56792;50.644;17.984;2023-07-09T08:10:33;27.92;46.00
69589;SHT31;56792;50.644;17.984;2023-07-09T08:13:01;28.04;45.55
69589;SHT31;56792;50.644;17.984;2023-07-09T08:15:29;28.16;44.99
69589;SHT31;56792;50.644;17.984;2023-07-09T08:17:58;28.29;44.82
69589;SHT31;56792;50.644;17.984;2023-07-09T08:20:26;28.42;43.44
69589;SHT31;56792;50.644;17.984;2023-07-09T08:22:54;28.55;44.79
69589;SHT31;56792;50.644;17.984;2023-07-09T08:25:23;28.66;44.14
69589;SHT31;56792;50.644;17.984;2023-07-09T08:27:51;28.78;44.03
69589;SHT31;56792;50.644;17.984;2023-07-09T08:30:19;28.91;45.23
69589;SHT31;56792;50.644;17.984;2023-07-09T08:32:47;29.04;44.79
69589;SHT31;56792;50.644;17.984;2023-07-09T08:35:15;29.20;44.36
69589;SHT31;56792;50.644;17.984;2023-07-09T08:37:44;29.34;43.12
69589;SHT31;56792;50.644;17.984;2023-07-09T08:40:13;29.46;43.56
69589;SHT31;56792;50.644;17.984;2023-07-09T08:42:44;29.62;42.63
69589;SHT31;56792;50.644;17.984;2023-07-09T08:45:21;29.78;41.51
69589;SHT31;56792;50.644;17.984;2023-07-09T08:48:03;29.91;42.63
69589;SHT31;56792;50.644;17.984;2023-07-09T08:50:41;30.09;43.70
69589;SHT31;56792;50.644;17.984;2023-07-09T08:53:18;30.31;41.85
69589;SHT31;56792;50.644;17.984;2023-07-09T08:55:53;30.47;42.76
69589;SHT31;56792;50.644;17.984;2023-07-09T08:58:23;30.61;41.04
69589;SHT31;56792;50.644;17.984;2023-07-09T09:00:55;30.80;39.82
69589;SHT31;56792;50.644;17.984;2023-07-09T09:03:28;30.97;39.66
69589;SHT31;56792;50.644;17.984;2023-07-09T09:06:09;31.14;39.27
69589;SHT31;56792;50.644;17.984;2023-07-09T09:08:40;31.32;38.32
69589;SHT31;56792;50.644;17.984;2023-07-09T09:11:20;31.50;37.87
69589;SHT31;56792;50.644;17.984;2023-07-09T09:13:58;31.65;38.13
69589;SHT31;56792;50.644;17.984;2023-07-09T09:16:33;31.77;35.61
69589;SHT31;56792;50.644;17.984;2023-07-09T09:19:13;31.89;35.38
69589;SHT31;56792;50.644;17.984;2023-07-09T09:21:50;32.05;35.08
69589;SHT31;56792;50.644;17.984;2023-07-09T09:24:30;32.20;35.92
69589;SHT31;56792;50.644;17.984;2023-07-09T09:27:03;32.38;36.27
69589;SHT31;56792;50.644;17.984;2023-07-09T09:29:34;32.54;35.02
69589;SHT31;56792;50.644;17.984;2023-07-09T09:32:10;32.64;34.79
69589;SHT31;56792;50.644;17.984;2023-07-09T09:34:50;32.76;35.05
69589;SHT31;56792;50.644;17.984;2023-07-09T09:37:26;32.88;34.32
69589;SHT31;56792;50.644;17.984;2023-07-09T09:39:58;33.06;34.55
69589;SHT31;56792;50.644;17.984;2023-07-09T09:42:29;33.23;35.67
69589;SHT31;56792;50.644;17.984;2023-07-09T09:44:58;33.42;35.58
69589;SHT31;56792;50.644;17.984;2023-07-09T09:47:28;33.49;33.16
69589;SHT31;56792;50.644;17.984;2023-07-09T09:49:56;33.55;32.34
69589;SHT31;56792;50.644;17.984;2023-07-09T09:52:26;33.68;33.15
69589;SHT31;56792;50.644;17.984;2023-07-09T09:55:02;33.86;34.55
69589;SHT31;56792;50.644;17.984;2023-07-09T09:57:48;34.02;34.17
69589;SHT31;56792;50.644;17.984;2023-07-09T10:00:19;34.16;32.81
69589;SHT31;56792;50.644;17.984;2023-07-09T10:02:52;34.25;30.84
69589;SHT31;56792;50.644;17.984;2023-07-09T10:05:27;34.32;30.27
69589;SHT31;56792;50.644;17.984;2023-07-09T10:08:05;34.43;31.53
69589;SHT31;56792;50.644;17.984;2023-07-09T10:10:41;34.58;32.16
69589;SHT31;56792;50.644;17.984;2023-07-09T10:13:15;34.70;32.26
69589;SHT31;56792;50.644;17.984;2023-07-09T10:15:56;34.66;31.02
69589;SHT31;56792;50.644;17.984;2023-07-09T10:18:36;34.57;30.20
69589;SHT31;56792;50.644;17.984;2023-07-09T10:21:15;34.66;30.68
69589;SHT31;56792;50.644;17.984;2023-07-09T10:23:51;34.83;31.26
69589;SHT31;56792;50.644;17.984;2023-07-09T10:26:36;34.91;30.39
69589;SHT31;56792;50.644;17.984;2023-07-09T10:29:24;34.99;30.39
69589;SHT31;56792;50.644;17.984;2023-07-09T10:32:19;35.07;30.18
69589;SHT31;56792;50.644;17.984;2023-07-09T10:35:04;35.21;29.69
69589;SHT31;56792;50.644;17.984;2023-07-09T10:37:47;35.39;29.93
69589;SHT31;56792;50.644;17.984;2023-07-09T10:40:30;35.46;30.11
69589;SHT31;56792;50.644;17.984;2023-07-09T10:43:05;35.53;28.19
69589;SHT31;56792;50.644;17.984;2023-07-09T10:45:46;35.62;29.38
69589;SHT31;56792;50.644;17.984;2023-07-09T10:48:20;35.78;28.90
69589;SHT31;56792;50.644;17.984;2023-07-09T10:51:02;35.76;27.65
69589;SHT31;56792;50.644;17.984;2023-07-09T10:53:41;35.78;27.30
69589;SHT31;56792;50.644;17.984;2023-07-09T10:56:15;35.85;27.62
69589;SHT31;56792;50.644;17.984;2023-07-09T10:58:50;35.93;27.77
69589;SHT31;56792;50.644;17.984;2023-07-09T11:01:32;36.06;27.74
69589;SHT31;56792;50.644;17.984;2023-07-09T11:04:10;36.20;27.83
69589;SHT31;56792;50.644;17.984;2023-07-09T11:06:56;36.34;28.63
69589;SHT31;56792;50.644;17.984;2023-07-09T11:09:30;36.47;28.57
69589;SHT31;56792;50.644;17.984;2023-07-09T11:12:02;36.61;28.76
69589;SHT31;56792;50.644;17.984;2023-07-09T11:14:39;36.68;27.55
69589;SHT31;56792;50.644;17.984;2023-07-09T11:17:14;36.71;27.47
69589;SHT31;56792;50.644;17.984;2023-07-09T11:19:47;36.70;26.39
69589;SHT31;56792;50.644;17.984;2023-07-09T11:22:23;36.75;26.60
69589;SHT31;56792;50.644;17.984;2023-07-09T11:25:05;36.85;26.13
69589;SHT31;56792;50.644;17.984;2023-07-09T11:27:48;36.91;25.21
69589;SHT31;56792;50.644;17.984;2023-07-09T11:30:22;36.99;25.71
69589;SHT31;56792;50.644;17.984;2023-07-09T11:32:53;37.02;26.09
69589;SHT31;56792;50.644;17.984;2023-07-09T11:35:26;37.04;24.78
69589;SHT31;56792;50.644;17.984;2023-07-09T11:37:56;37.06;25.50
69589;SHT31;56792;50.644;17.984;2023-07-09T11:40:45;37.08;24.58
69589;SHT31;56792;50.644;17.984;2023-07-09T11:43:26;37.12;25.87
69589;SHT31;56792;50.644;17.984;2023-07-09T11:46:00;37.25;25.42
69589;SHT31;56792;50.644;17.984;2023-07-09T11:48:40;37.29;25.05
69589;SHT31;56792;50.644;17.984;2023-07-09T11:51:13;37.34;24.93
69589;SHT31;56792;50.644;17.984;2023-07-09T11:53:47;37.34;23.61
69589;SHT31;56792;50.644;17.984;2023-07-09T11:56:19;37.27;22.68
69589;SHT31;56792;50.644;17.984;2023-07-09T11:58:50;37.19;22.29
69589;SHT31;56792;50.644;17.984;2023-07-09T12:01:22;37.02;23.22
69589;SHT31;56792;50.644;17.984;2023-07-09T12:03:56;37.06;24.34
69589;SHT31;56792;50.644;17.984;2023-07-09T12:06:26;37.07;24.08
69589;SHT31;56792;50.644;17.984;2023-07-09T12:08:58;37.08;23.75
69589;SHT31;56792;50.644;17.984;2023-07-09T12:11:29;37.10;24.24
69589;SHT31;56792;50.644;17.984;2023-07-09T12:14:02;37.18;24.78
69589;SHT31;56792;50.644;17.984;2023-07-09T12:16:35;37.19;25.79
69589;SHT31;56792;50.644;17.984;2023-07-09T12:19:06;37.26;25.82
69589;SHT31;56792;50.644;17.984;2023-07-09T12:21:37;37.24;26.07
69589;SHT31;56792;50.644;17.984;2023-07-09T12:24:18;36.59;25.91
69589;SHT31;56792;50.644;17.984;2023-07-09T12:26:51;36.57;26.22
69589;SHT31;56792;50.644;17.984;2023-07-09T12:29:23;36.73;24.36
69589;SHT31;56792;50.644;17.984;2023-07-09T12:31:52;36.82;23.97
69589;SHT31;56792;50.644;17.984;2023-07-09T12:34:23;36.77;23.75
69589;SHT31;56792;50.644;17.984;2023-07-09T12:36:52;36.83;23.95
69589;SHT31;56792;50.644;17.984;2023-07-09T12:39:23;36.88;24.29
69589;SHT31;56792;50.644;17.984;2023-07-09T12:41:56;36.92;24.59
69589;SHT31;56792;50.644;17.984;2023-07-09T12:44:29;37.03;26.16
69589;SHT31;56792;50.644;17.984;2023-07-09T12:47:03;37.14;26.16
69589;SHT31;56792;50.644;17.984;2023-07-09T12:49:39;37.25;26.51
69589;SHT31;56792;50.644;17.984;2023-07-09T12:52:14;37.32;25.56
69589;SHT31;56792;50.644;17.984;2023-07-09T12:54:52;37.33;25.58
69589;SHT31;56792;50.644;17.984;2023-07-09T12:57:24;37.37;25.59
69589;SHT31;56792;50.644;17.984;2023-07-09T12:59:54;37.36;24.90
69589;SHT31;56792;50.644;17.984;2023-07-09T13:02:23;37.34;25.70
69589;SHT31;56792;50.644;17.984;2023-07-09T13:04:59;37.36;26.36
69589;SHT31;56792;50.644;17.984;2023-07-09T13:07:31;37.33;26.34
69589;SHT31;56792;50.644;17.984;2023-07-09T13:10:14;37.30;25.00
69589;SHT31;56792;50.644;17.984;2023-07-09T13:12:46;37.13;23.83
69589;SHT31;56792;50.644;17.984;2023-07-09T13:15:24;36.97;25.51
69589;SHT31;56792;50.644;17.984;2023-07-09T13:18:00;36.99;25.94
69589;SHT31;56792;50.644;17.984;2023-07-09T13:20:31;36.97;25.98
69589;SHT31;56792;50.644;17.984;2023-07-09T13:23:07;36.80;26.06
69589;SHT31;56792;50.644;17.984;2023-07-09T13:25:38;36.72;26.37
69589;SHT31;56792;50.644;17.984;2023-07-09T13:28:10;36.71;25.93
69589;SHT31;56792;50.644;17.984;2023-07-09T13:30:43;36.69;26.06
69589;SHT31;56792;50.644;17.984;2023-07-09T13:33:12;36.70;25.85
69589;SHT31;56792;50.644;17.984;2023-07-09T13:35:40;36.69;26.16
69589;SHT31;56792;50.644;17.984;2023-07-09T13:38:13;36.72;26.59
69589;SHT31;56792;50.644;17.984;2023-07-09T13:40:43;36.74;25.80
69589;SHT31;56792;50.644;17.984;2023-07-09T13:43:14;36.73;25.68
69589;SHT31;56792;50.644;17.984;2023-07-09T13:45:45;36.69;25.74
69589;SHT31;56792;50.644;17.984;2023-07-09T13:48:16;36.61;24.48
69589;SHT31;56792;50.644;17.984;2023-07-09T13:50:47;36.49;24.80
69589;SHT31;56792;50.644;17.984;2023-07-09T13:53:19;36.32;24.03
69589;SHT31;56792;50.644;17.984;2023-07-09T13:55:50;36.18;25.48
69589;SHT31;56792;50.644;17.984;2023-07-09T13:58:19;36.17;26.21
69589;SHT31;56792;50.644;17.984;2023-07-09T14:00:50;36.13;26.17
69589;SHT31;56792;50.644;17.984;2023-07-09T14:03:26;36.06;25.45
69589;SHT31;56792;50.644;17.984;2023-07-09T14:05:58;36.03;25.58
69589;SHT31;56792;50.644;17.984;2023-07-09T14:08:26;35.94;24.45
69589;SHT31;56792;50.644;17.984;2023-07-09T14:10:54;35.90;25.13
69589;SHT31;56792;50.644;17.984;2023-07-09T14:13:23;35.83;24.46
69589;SHT31;56792;50.644;17.984;2023-07-09T14:15:52;35.66;24.62
69589;SHT31;56792;50.644;17.984;2023-07-09T14:18:21;35.64;26.27
69589;SHT31;56792;50.644;17.984;2023-07-09T14:20:50;35.67;26.92
69589;SHT31;56792;50.644;17.984;2023-07-09T14:23:19;35.67;26.27
69589;SHT31;56792;50.644;17.984;2023-07-09T14:25:47;35.63;25.98
69589;SHT31;56792;50.644;17.984;2023-07-09T14:28:16;35.53;26.00
69589;SHT31;56792;50.644;17.984;2023-07-09T14:30:48;35.44;27.08
69589;SHT31;56792;50.644;17.984;2023-07-09T14:33:18;35.40;27.07
69589;SHT31;56792;50.644;17.984;2023-07-09T14:35:48;35.39;27.28
69589;SHT31;56792;50.644;17.984;2023-07-09T14:38:18;35.32;26.37
69589;SHT31;56792;50.644;17.984;2023-07-09T14:40:49;35.22;26.02
69589;SHT31;56792;50.644;17.984;2023-07-09T14:43:21;35.05;25.36
69589;SHT31;56792;50.644;17.984;2023-07-09T14:45:50;34.98;26.01
69589;SHT31;56792;50.644;17.984;2023-07-09T14:48:18;34.91;26.55
69589;SHT31;56792;50.644;17.984;2023-07-09T14:50:49;34.90;27.13
69589;SHT31;56792;50.644;17.984;2023-07-09T14:53:23;34.78;25.95
69589;SHT31;56792;50.644;17.984;2023-07-09T14:55:53;34.56;25.65
69589;SHT31;56792;50.644;17.984;2023-07-09T14:58:22;34.45;26.62
69589;SHT31;56792;50.644;17.984;2023-07-09T15:00:52;34.39;26.63
69589;SHT31;56792;50.644;17.984;2023-07-09T15:03:21;34.34;26.31
69589;SHT31;56792;50.644;17.984;2023-07-09T15:05:52;34.30;27.27
69589;SHT31;56792;50.644;17.984;2023-07-09T15:08:21;34.26;27.31
69589;SHT31;56792;50.644;17.984;2023-07-09T15:10:53;34.23;27.91
69589;SHT31;56792;50.644;17.984;2023-07-09T15:13:25;34.22;28.02
69589;SHT31;56792;50.644;17.984;2023-07-09T15:15:58;34.19;27.85
69589;SHT31;56792;50.644;17.984;2023-07-09T15:18:26;34.13;27.59
69589;SHT31;56792;50.644;17.984;2023-07-09T15:20:56;34.06;27.08
69589;SHT31;56792;50.644;17.984;2023-07-09T15:23:28;33.99;27.67
69589;SHT31;56792;50.644;17.984;2023-07-09T15:26:00;33.96;27.79
69589;SHT31;56792;50.644;17.984;2023-07-09T15:28:31;33.85;26.43
69589;SHT31;56792;50.644;17.984;2023-07-09T15:30:59;33.70;27.18
69589;SHT31;56792;50.644;17.984;2023-07-09T15:33:27;33.66;26.10
69589;SHT31;56792;50.644;17.984;2023-07-09T15:35:57;33.60;25.92
69589;SHT31;56792;50.644;17.984;2023-07-09T15:38:27;33.56;26.53
69589;SHT31;56792;50.644;17.984;2023-07-09T15:41:00;33.53;26.55